createdAt,value
2019-04-30T00:02:29.398Z,43.00
2019-04-30T00:04:55.467Z,43.10
2019-04-30T00:07:21.404Z,43.10
2019-04-30T00:09:49.203Z,43.00
2019-04-30T00:12:15.770Z,43.10
2019-04-30T00:14:41.858Z,43.10
2019-04-30T00:17:10.734Z,43.70
2019-04-30T00:19:35.974Z,43.10
2019-04-30T00:22:01.957Z,43.10
2019-04-30T00:24:28.022Z,43.10
2019-04-30T00:26:55.152Z,43.10
2019-04-30T00:29:26.794Z,43.10
2019-04-30T00:31:49.190Z,43.10
2019-04-30T00:34:15.281Z,43.10
2019-04-30T00:36:41.305Z,43.10
2019-04-30T00:39:13.130Z,43.10
2019-04-30T00:41:35.417Z,43.10
2019-04-30T00:44:01.465Z,43.20
2019-04-30T00:46:29.460Z,43.30
2019-04-30T00:48:56.796Z,43.30
2019-04-30T00:51:23.135Z,43.20
2019-04-30T00:53:51.300Z,43.30
2019-04-30T00:56:19.886Z,43.30
2019-04-30T00:58:45.278Z,43.30
2019-04-30T01:01:15.645Z,43.30
2019-04-30T01:03:46.460Z,43.30
2019-04-30T01:06:11.345Z,43.30
2019-04-30T01:08:37.295Z,43.40
2019-04-30T01:11:06.541Z,43.40
2019-04-30T01:13:31.419Z,43.40
2019-04-30T01:15:58.752Z,43.40
2019-04-30T01:18:30.589Z,43.40
2019-04-30T01:20:52.753Z,43.40
2019-04-30T01:23:19.525Z,43.30
2019-04-30T01:25:49.953Z,43.40
2019-04-30T01:28:16.412Z,43.40
2019-04-30T01:30:41.667Z,43.50
2019-04-30T01:33:09.104Z,43.40
2019-04-30T01:35:35.283Z,43.40
2019-04-30T01:38:04.174Z,43.40
2019-04-30T01:40:29.216Z,43.40
2019-04-30T01:42:55.171Z,43.40
2019-04-30T01:45:23.124Z,43.40
2019-04-30T01:47:49.620Z,43.50
2019-04-30T01:50:15.663Z,43.50
2019-04-30T01:52:53.326Z,43.50
2019-04-30T01:55:21.260Z,43.50
2019-04-30T01:57:49.222Z,43.50
2019-04-30T02:00:19.668Z,43.50
2019-04-30T02:02:46.602Z,43.50
2019-04-30T02:05:12.641Z,43.50
2019-04-30T02:07:40.285Z,43.60
2019-04-30T02:10:06.453Z,43.60
2019-04-30T02:12:32.410Z,43.60
2019-04-30T02:14:59.763Z,43.60
2019-04-30T02:17:25.880Z,43.60
2019-04-30T02:19:56.629Z,43.60
2019-04-30T02:22:19.703Z,43.70
2019-04-30T02:24:45.658Z,43.70
2019-04-30T02:27:11.616Z,43.70
2019-04-30T02:29:39.332Z,43.60
2019-04-30T02:32:05.439Z,43.60
2019-04-30T02:34:44.381Z,43.60
2019-04-30T02:37:12.133Z,43.70
2019-04-30T02:39:40.321Z,43.70
2019-04-30T02:42:05.998Z,43.70
2019-04-30T02:44:31.958Z,43.70
2019-04-30T02:47:00.097Z,43.70
2019-04-30T02:49:25.725Z,43.70
2019-04-30T02:51:51.673Z,43.70
2019-04-30T02:54:20.309Z,43.70
2019-04-30T02:56:47.357Z,43.70
2019-04-30T02:59:13.294Z,43.70
2019-04-30T03:01:40.260Z,43.70
2019-04-30T03:04:06.602Z,43.60
2019-04-30T03:06:32.569Z,43.70
2019-04-30T03:09:01.007Z,43.60
2019-04-30T03:11:26.350Z,43.80
2019-04-30T03:13:52.293Z,43.80
2019-04-30T03:16:40.148Z,43.60
2019-04-30T03:19:09.889Z,43.70
2019-04-30T03:21:55.260Z,43.70
2019-04-30T03:24:21.195Z,43.70
2019-04-30T03:26:49.662Z,43.60
2019-04-30T03:29:15.013Z,43.60
2019-04-30T03:31:44.333Z,43.60
2019-04-30T03:34:16.589Z,43.60
2019-04-30T03:36:36.727Z,43.50
2019-04-30T03:39:02.860Z,43.60
2019-04-30T03:41:33.083Z,43.60
2019-04-30T03:43:56.665Z,43.50
2019-04-30T03:46:22.651Z,43.60
2019-04-30T03:48:50.333Z,43.50
2019-04-30T03:51:16.470Z,43.60
2019-04-30T03:53:42.698Z,43.60
2019-04-30T03:56:09.507Z,43.70
2019-04-30T03:58:35.638Z,43.80
2019-04-30T04:01:12.516Z,43.80
2019-04-30T04:04:00.489Z,43.60
2019-04-30T04:06:31.008Z,43.60
2019-04-30T04:09:04.751Z,43.60
2019-04-30T04:11:32.628Z,43.60
2019-04-30T04:13:59.721Z,43.60
2019-04-30T04:16:25.841Z,43.60
2019-04-30T04:18:51.780Z,43.60
2019-04-30T04:21:20.486Z,43.50
2019-04-30T04:23:45.571Z,43.60
2019-04-30T04:26:11.518Z,43.60
2019-04-30T04:28:42.495Z,43.60
2019-04-30T04:31:05.322Z,43.50
2019-04-30T04:33:31.280Z,43.40
2019-04-30T04:35:59.584Z,43.40
2019-04-30T04:38:25.062Z,43.40
2019-04-30T04:40:51.023Z,43.40
2019-04-30T04:43:16.985Z,43.60
2019-04-30T04:45:43.776Z,43.60
2019-04-30T04:48:10.014Z,43.80
2019-04-30T04:50:36.057Z,44.10
2019-04-30T04:53:02.056Z,44.10
2019-04-30T04:55:29.967Z,44.20
2019-04-30T04:57:55.970Z,44.40
2019-04-30T05:00:21.949Z,44.40
2019-04-30T05:02:49.979Z,44.30
2019-04-30T05:05:15.982Z,44.40
2019-04-30T05:07:41.937Z,44.50
2019-04-30T05:10:09.220Z,44.60
2019-04-30T05:12:37.438Z,44.80
2019-04-30T05:15:03.329Z,44.90
2019-04-30T05:17:31.852Z,44.80
2019-04-30T05:19:58.676Z,45.10
2019-04-30T05:22:29.198Z,45.40
2019-04-30T05:24:55.263Z,45.30
2019-04-30T05:27:21.235Z,45.30
2019-04-30T05:29:47.174Z,45.20
2019-04-30T05:32:13.155Z,45.00
2019-04-30T05:34:39.099Z,45.30
2019-04-30T05:37:05.043Z,45.30
2019-04-30T05:39:30.989Z,45.30
2019-04-30T05:41:58.844Z,45.30
2019-04-30T05:44:24.804Z,45.20
2019-04-30T05:46:50.759Z,45.20
2019-04-30T05:49:16.711Z,45.30
2019-04-30T05:51:52.833Z,45.20
2019-04-30T05:54:10.503Z,45.20
2019-04-30T05:56:36.451Z,45.20
2019-04-30T05:59:02.392Z,45.10
2019-04-30T06:01:29.579Z,45.10
2019-04-30T06:03:55.695Z,45.20
2019-04-30T06:06:21.674Z,45.20
2019-04-30T06:08:52.228Z,45.20
2019-04-30T06:11:36.625Z,45.20
2019-04-30T06:14:21.159Z,45.10
2019-04-30T06:17:03.940Z,45.10
2019-04-30T06:19:29.883Z,45.00
2019-04-30T06:22:04.921Z,45.00
2019-04-30T06:24:23.692Z,45.00
2019-04-30T06:26:49.647Z,44.90
2019-04-30T06:29:15.617Z,44.90
2019-04-30T06:31:43.250Z,44.80
2019-04-30T06:34:09.293Z,44.60
2019-04-30T06:36:35.243Z,44.60
2019-04-30T06:39:01.188Z,44.50
2019-04-30T06:41:27.137Z,44.50
2019-04-30T06:43:53.091Z,44.60
2019-04-30T06:46:19.054Z,44.50
2019-04-30T06:48:47.334Z,44.40
2019-04-30T06:51:12.972Z,44.30
2019-04-30T06:53:39.211Z,44.20
2019-04-30T06:56:05.257Z,44.30
2019-04-30T06:58:31.218Z,44.20
2019-04-30T07:00:59.427Z,44.10
2019-04-30T07:03:25.042Z,44.00
2019-04-30T07:05:50.982Z,44.00
2019-04-30T07:08:39.479Z,43.90
2019-04-30T07:11:21.209Z,44.00
2019-04-30T07:13:52.202Z,43.90
2019-04-30T07:16:18.988Z,43.70
2019-04-30T07:18:46.034Z,43.80
2019-04-30T07:21:12.012Z,43.70
2019-04-30T07:23:38.704Z,43.70
2019-04-30T07:26:04.788Z,43.60
2019-04-30T07:28:43.315Z,43.50
2019-04-30T07:31:08.731Z,43.60
2019-04-30T07:33:26.465Z,43.50
2019-04-30T07:35:52.406Z,43.50
2019-04-30T07:38:19.399Z,43.60
2019-04-30T07:40:45.542Z,43.50
2019-04-30T07:43:11.493Z,43.50
2019-04-30T07:45:39.289Z,43.50
2019-04-30T07:48:05.414Z,43.30
2019-04-30T07:50:32.027Z,43.30
2019-04-30T07:53:05.087Z,43.20
2019-04-30T07:55:26.489Z,43.20
2019-04-30T07:57:52.459Z,43.10
2019-04-30T08:00:19.377Z,43.10
2019-04-30T08:02:50.315Z,43.20
2019-04-30T08:05:19.282Z,43.30
2019-04-30T08:07:45.177Z,43.20
2019-04-30T08:10:11.254Z,43.10
2019-04-30T08:12:41.113Z,43.10
2019-04-30T08:15:05.078Z,43.20
2019-04-30T08:17:31.142Z,43.20
2019-04-30T08:19:58.760Z,43.10
2019-04-30T08:22:29.621Z,43.20
2019-04-30T08:24:55.543Z,43.20
2019-04-30T08:27:21.494Z,42.90
2019-04-30T08:29:49.428Z,42.20
2019-04-30T08:32:15.342Z,41.50
2019-04-30T08:34:41.293Z,40.80
2019-04-30T08:37:17.210Z,40.10
2019-04-30T08:39:35.107Z,39.40
2019-04-30T08:42:01.035Z,39.20
2019-04-30T08:44:27.033Z,39.00
2019-04-30T08:46:52.991Z,38.60
2019-04-30T08:49:19.455Z,38.40
2019-04-30T08:51:46.002Z,38.20
2019-04-30T08:54:12.060Z,37.80
2019-04-30T08:56:38.782Z,37.50
2019-04-30T08:59:04.850Z,37.30
2019-04-30T09:01:30.792Z,37.10
2019-04-30T09:03:56.761Z,36.90
2019-04-30T09:06:24.613Z,36.80
2019-04-30T09:08:51.596Z,36.70
2019-04-30T09:11:25.720Z,36.40
2019-04-30T09:13:45.459Z,36.40
2019-04-30T09:16:11.448Z,36.20
2019-04-30T09:18:39.233Z,36.30
2019-04-30T09:21:06.476Z,36.00
2019-04-30T09:23:43.997Z,36.00
2019-04-30T09:26:00.967Z,36.00
2019-04-30T09:28:26.971Z,36.00
2019-04-30T09:30:52.930Z,36.10
2019-04-30T09:33:19.437Z,36.30
2019-04-30T09:35:45.522Z,36.40
2019-04-30T09:38:11.494Z,36.50
2019-04-30T09:40:41.271Z,36.70
2019-04-30T09:43:05.283Z,36.80
2019-04-30T09:45:31.232Z,36.90
2019-04-30T09:47:59.117Z,37.00
2019-04-30T09:50:25.139Z,37.10
2019-04-30T09:52:51.303Z,37.10
2019-04-30T09:55:19.232Z,37.20
2019-04-30T09:57:45.419Z,37.40
2019-04-30T10:00:11.407Z,37.40
2019-04-30T10:02:38.865Z,37.50
2019-04-30T10:05:05.490Z,37.50
2019-04-30T10:07:31.762Z,37.60
2019-04-30T10:09:59.103Z,37.70
2019-04-30T10:12:25.193Z,37.90
2019-04-30T10:14:51.477Z,37.90
2019-04-30T10:17:28.272Z,38.00
2019-04-30T10:19:54.264Z,38.10
2019-04-30T10:22:25.534Z,38.30
2019-04-30T10:24:52.001Z,38.40
2019-04-30T10:27:19.175Z,38.40
2019-04-30T10:29:45.328Z,38.50
2019-04-30T10:32:11.542Z,38.50
2019-04-30T10:34:37.543Z,38.60
2019-04-30T10:37:03.498Z,38.60
2019-04-30T10:39:30.254Z,38.70
2019-04-30T10:41:56.220Z,38.80
2019-04-30T10:44:22.192Z,38.90
2019-04-30T10:46:48.140Z,38.90
2019-04-30T10:49:14.102Z,39.00
2019-04-30T10:51:40.153Z,39.00
2019-04-30T10:54:06.093Z,39.10
2019-04-30T10:56:32.057Z,39.20
2019-04-30T10:58:58.051Z,39.20
2019-04-30T11:01:24.086Z,39.20
2019-04-30T11:03:50.043Z,39.20
2019-04-30T11:06:16.015Z,39.30
2019-04-30T11:08:42.049Z,39.20
2019-04-30T11:11:08.033Z,39.20
2019-04-30T11:13:34.158Z,39.20
2019-04-30T11:16:12.055Z,39.20
2019-04-30T11:18:28.268Z,39.20
2019-04-30T11:20:54.494Z,39.30
2019-04-30T11:23:21.340Z,39.20
2019-04-30T11:25:50.047Z,39.30
2019-04-30T11:28:15.895Z,39.30
2019-04-30T11:30:42.388Z,39.30
2019-04-30T11:33:08.789Z,39.40
2019-04-30T11:35:34.887Z,39.30
2019-04-30T11:38:00.844Z,39.40
2019-04-30T11:40:34.375Z,39.50
2019-04-30T11:42:55.044Z,39.50
2019-04-30T11:45:21.152Z,39.40
2019-04-30T11:47:53.330Z,39.40
2019-04-30T11:50:14.950Z,39.50
2019-04-30T11:52:40.902Z,39.40
2019-04-30T11:55:06.877Z,40.10
2019-04-30T11:57:32.945Z,39.50
2019-04-30T11:59:58.883Z,39.60
2019-04-30T12:02:32.828Z,39.60
2019-04-30T12:04:58.908Z,39.60
2019-04-30T12:07:26.780Z,39.70
2019-04-30T12:10:03.460Z,39.80
2019-04-30T12:12:30.608Z,39.90
2019-04-30T12:14:56.560Z,39.90
2019-04-30T12:17:22.520Z,39.90
2019-04-30T12:19:48.841Z,39.90
2019-04-30T12:22:14.941Z,39.90
2019-04-30T12:24:40.886Z,39.90
2019-04-30T12:27:06.893Z,39.90
2019-04-30T12:29:32.940Z,39.90
2019-04-30T12:31:58.919Z,40.00
2019-04-30T12:34:24.908Z,39.90
2019-04-30T12:36:50.978Z,40.00
2019-04-30T12:39:16.953Z,40.10
2019-04-30T12:41:42.938Z,40.10
2019-04-30T12:44:09.118Z,40.10
2019-04-30T12:46:35.068Z,40.10
2019-04-30T12:49:05.573Z,40.20
2019-04-30T12:51:45.047Z,40.20
2019-04-30T12:54:03.185Z,40.20
2019-04-30T12:56:39.741Z,40.30
2019-04-30T12:59:05.793Z,40.30
2019-04-30T13:01:34.026Z,40.30
2019-04-30T13:04:01.435Z,40.30
2019-04-30T13:06:28.013Z,40.30
2019-04-30T13:08:54.664Z,40.40
2019-04-30T13:11:22.003Z,40.40
2019-04-30T13:13:50.571Z,40.40
2019-04-30T13:16:16.218Z,40.40
2019-04-30T13:18:42.175Z,40.40
2019-04-30T13:21:08.587Z,40.50
2019-04-30T13:23:34.674Z,40.50
2019-04-30T13:26:01.080Z,40.50
2019-04-30T13:28:43.977Z,40.50
2019-04-30T13:31:10.037Z,40.50
2019-04-30T13:33:49.393Z,40.50
2019-04-30T13:36:14.716Z,40.50
2019-04-30T13:38:49.562Z,40.50
2019-04-30T13:41:18.708Z,40.40
2019-04-30T13:43:55.657Z,40.40
2019-04-30T13:46:21.999Z,40.50
2019-04-30T13:48:47.961Z,40.50
2019-04-30T13:51:13.923Z,41.10
2019-04-30T13:53:39.904Z,40.50
2019-04-30T13:56:05.941Z,40.50
2019-04-30T13:58:31.912Z,40.50
2019-04-30T14:00:57.989Z,40.40
2019-04-30T14:03:29.150Z,40.40
2019-04-30T14:05:55.175Z,40.40
2019-04-30T14:08:23.076Z,40.50
2019-04-30T14:10:49.391Z,40.60
2019-04-30T14:13:15.549Z,40.60
2019-04-30T14:15:41.533Z,40.70
2019-04-30T14:18:09.242Z,40.70
2019-04-30T14:20:35.355Z,40.70
2019-04-30T14:23:01.311Z,40.70
2019-04-30T14:25:27.289Z,40.70
2019-04-30T14:27:54.839Z,40.80
2019-04-30T14:30:21.055Z,40.80
2019-04-30T14:32:50.576Z,40.70
2019-04-30T14:35:14.973Z,41.40
2019-04-30T14:37:40.931Z,40.80
2019-04-30T14:40:07.156Z,40.80
2019-04-30T14:42:35.736Z,40.80
2019-04-30T14:45:13.286Z,40.80
2019-04-30T14:47:42.448Z,40.80
2019-04-30T14:50:10.749Z,40.80
2019-04-30T14:52:40.317Z,40.80
2019-04-30T14:55:11.281Z,40.80
2019-04-30T14:57:51.374Z,40.80
2019-04-30T15:00:35.881Z,40.80
2019-04-30T15:03:06.638Z,40.70
2019-04-30T15:05:39.161Z,40.80
2019-04-30T15:08:00.922Z,40.80
2019-04-30T15:10:27.086Z,40.80
2019-04-30T15:12:53.143Z,40.80
2019-04-30T15:15:19.292Z,40.80
2019-04-30T15:17:45.292Z,40.80
2019-04-30T15:20:11.226Z,40.80
2019-04-30T15:22:39.088Z,40.80
2019-04-30T15:25:05.075Z,40.80
2019-04-30T15:27:31.025Z,40.80
2019-04-30T15:29:57.441Z,40.80
2019-04-30T15:32:23.437Z,40.80
2019-04-30T15:34:49.424Z,40.80
2019-04-30T15:37:21.749Z,40.80
2019-04-30T15:39:43.259Z,40.80
2019-04-30T15:42:10.679Z,40.80
2019-04-30T15:44:40.022Z,40.70
2019-04-30T15:47:04.817Z,40.70
2019-04-30T15:49:30.783Z,40.70
2019-04-30T15:51:56.832Z,40.70
2019-04-30T15:54:22.805Z,40.80
2019-04-30T15:56:49.016Z,40.80
2019-04-30T15:59:18.869Z,40.80
2019-04-30T16:01:55.472Z,41.40
2019-04-30T16:04:26.154Z,40.80
2019-04-30T16:06:52.108Z,40.80
2019-04-30T16:09:22.882Z,40.90
2019-04-30T16:11:53.350Z,40.90
2019-04-30T16:14:24.253Z,40.90
2019-04-30T16:16:52.218Z,40.80
2019-04-30T16:19:18.767Z,40.80
2019-04-30T16:21:44.839Z,40.80
2019-04-30T16:24:10.803Z,40.80
2019-04-30T16:26:47.258Z,40.80
2019-04-30T16:29:04.631Z,40.80
2019-04-30T16:31:30.591Z,40.80
2019-04-30T16:33:56.549Z,40.80
2019-04-30T16:36:22.516Z,40.80
2019-04-30T16:38:48.747Z,40.80
2019-04-30T16:41:14.837Z,40.80
2019-04-30T16:43:40.820Z,40.80
2019-04-30T16:46:06.896Z,40.80
2019-04-30T16:48:32.881Z,40.80
2019-04-30T16:50:58.932Z,40.80
2019-04-30T16:53:24.885Z,40.70
2019-04-30T16:55:50.842Z,40.70
2019-04-30T16:58:19.546Z,40.80
2019-04-30T17:00:44.692Z,40.80
2019-04-30T17:03:29.250Z,40.80
2019-04-30T17:05:57.124Z,40.90
2019-04-30T17:08:24.988Z,40.70
2019-04-30T17:10:52.857Z,40.80
2019-04-30T17:13:20.840Z,40.70
2019-04-30T17:15:48.724Z,40.70
2019-04-30T17:18:14.680Z,40.70
2019-04-30T17:20:40.671Z,40.70
2019-04-30T17:23:06.722Z,40.80
2019-04-30T17:25:32.708Z,40.70
2019-04-30T17:28:01.398Z,40.80
2019-04-30T17:30:26.610Z,40.80
2019-04-30T17:32:52.576Z,40.80
2019-04-30T17:35:19.067Z,40.90
2019-04-30T17:37:45.175Z,41.00
2019-04-30T17:40:11.158Z,40.90
2019-04-30T17:42:37.182Z,41.00
2019-04-30T17:45:03.253Z,41.00
2019-04-30T17:47:29.218Z,40.90
2019-04-30T17:49:55.267Z,41.00
2019-04-30T17:52:25.999Z,41.00
2019-04-30T17:54:51.983Z,41.00
2019-04-30T17:57:29.760Z,41.00
2019-04-30T17:59:45.814Z,41.70
2019-04-30T18:02:14.860Z,41.00
2019-04-30T18:04:40.802Z,41.10
2019-04-30T18:07:06.757Z,41.10
2019-04-30T18:09:32.706Z,41.10
2019-04-30T18:11:59.535Z,41.00
2019-04-30T18:14:25.755Z,41.00
2019-04-30T18:16:51.722Z,41.10
2019-04-30T18:19:22.631Z,41.00
2019-04-30T18:21:50.507Z,41.00
2019-04-30T18:24:29.387Z,41.10
2019-04-30T18:26:59.850Z,41.10
2019-04-30T18:29:25.825Z,41.10
2019-04-30T18:31:51.903Z,41.10
2019-04-30T18:34:19.438Z,41.10
2019-04-30T18:36:45.517Z,41.70
2019-04-30T18:39:11.469Z,41.20
2019-04-30T18:41:37.443Z,41.10
2019-04-30T18:44:03.417Z,41.20
2019-04-30T18:46:29.484Z,41.10
2019-04-30T18:48:55.459Z,41.10
2019-04-30T18:51:33.866Z,41.10
2019-04-30T18:53:49.450Z,41.70
2019-04-30T18:56:15.516Z,41.10
2019-04-30T18:58:43.194Z,41.20
2019-04-30T19:01:09.921Z,41.10
2019-04-30T19:03:35.979Z,41.00
2019-04-30T19:06:08.589Z,40.80
2019-04-30T19:08:36.483Z,40.50
2019-04-30T19:11:19.474Z,40.50
2019-04-30T19:13:59.314Z,40.50
2019-04-30T19:16:32.827Z,40.40
2019-04-30T19:19:11.262Z,40.30
2019-04-30T19:21:40.183Z,40.30
2019-04-30T19:24:05.351Z,40.40
2019-04-30T19:26:31.319Z,40.50
2019-04-30T19:28:57.270Z,40.60
2019-04-30T19:31:23.243Z,40.70
2019-04-30T19:33:49.215Z,40.80
2019-04-30T19:36:15.205Z,40.70
2019-04-30T19:38:41.245Z,40.70
2019-04-30T19:41:10.663Z,41.00
2019-04-30T19:43:35.096Z,41.10
2019-04-30T19:46:01.047Z,41.00
2019-04-30T19:48:27.014Z,41.20
2019-04-30T19:50:52.955Z,41.20
2019-04-30T19:53:22.052Z,41.30
2019-04-30T19:55:46.784Z,41.30
2019-04-30T19:58:25.435Z,41.30
2019-04-30T20:00:40.620Z,41.40
2019-04-30T20:03:08.711Z,41.50
2019-04-30T20:05:34.445Z,41.50
2019-04-30T20:08:00.393Z,41.50
2019-04-30T20:10:26.356Z,41.50
2019-04-30T20:12:52.318Z,41.50
2019-04-30T20:15:22.050Z,42.00
2019-04-30T20:17:46.205Z,41.40
2019-04-30T20:20:12.208Z,41.40
2019-04-30T20:22:38.954Z,41.30
2019-04-30T20:25:05.090Z,41.30
2019-04-30T20:27:31.076Z,41.30
2019-04-30T20:29:58.842Z,41.30
2019-04-30T20:32:35.423Z,41.30
2019-04-30T20:34:52.811Z,41.30
2019-04-30T20:37:19.655Z,41.30
2019-04-30T20:40:02.464Z,41.30
2019-04-30T20:42:31.009Z,41.40
2019-04-30T20:44:58.790Z,41.40
2019-04-30T20:47:25.164Z,41.40
2019-04-30T20:49:51.145Z,41.30
2019-04-30T20:52:20.644Z,41.30
2019-04-30T20:54:48.803Z,41.50
2019-04-30T20:57:14.666Z,41.40
2019-04-30T20:59:40.613Z,41.30
2019-04-30T21:02:08.482Z,41.90
2019-04-30T21:04:34.434Z,41.30
2019-04-30T21:07:00.401Z,41.30
2019-04-30T21:09:26.448Z,41.30
2019-04-30T21:11:52.399Z,41.30
2019-04-30T21:14:19.238Z,41.30
2019-04-30T21:16:45.449Z,41.30
2019-04-30T21:19:11.507Z,41.50
2019-04-30T21:21:38.737Z,41.40
2019-04-30T21:24:04.814Z,41.30
2019-04-30T21:26:30.871Z,41.20
2019-04-30T21:29:04.825Z,41.20
2019-04-30T21:31:29.277Z,41.20
2019-04-30T21:33:58.761Z,41.30
2019-04-30T21:36:26.289Z,41.20
2019-04-30T21:38:54.139Z,41.10
2019-04-30T21:41:20.108Z,41.10
2019-04-30T21:43:46.045Z,41.10
2019-04-30T21:46:11.997Z,41.30
2019-04-30T21:48:38.832Z,41.30
2019-04-30T21:51:05.035Z,41.30
2019-04-30T21:53:30.996Z,41.40
2019-04-30T21:55:56.948Z,41.40
2019-04-30T21:58:22.932Z,41.50
2019-04-30T22:00:53.414Z,41.50
2019-04-30T22:03:19.772Z,41.50
2019-04-30T22:05:46.145Z,41.50
2019-04-30T22:08:12.184Z,41.50
2019-04-30T22:10:38.152Z,41.60
2019-04-30T22:13:04.130Z,41.60
2019-04-30T22:15:30.113Z,41.70
2019-04-30T22:17:56.078Z,41.60
2019-04-30T22:20:22.041Z,41.70
2019-04-30T22:22:48.996Z,41.70
2019-04-30T22:25:15.066Z,41.60
2019-04-30T22:27:41.022Z,41.60
2019-04-30T22:30:07.008Z,41.60
2019-04-30T22:32:33.040Z,41.60
2019-04-30T22:35:18.711Z,41.60
2019-04-30T22:37:44.678Z,41.60
2019-04-30T22:40:10.742Z,41.60
2019-04-30T22:42:36.889Z,41.60
2019-04-30T22:45:04.262Z,42.30
2019-04-30T22:47:30.246Z,41.50
2019-04-30T22:49:56.297Z,41.60
2019-04-30T22:52:22.252Z,41.60
2019-04-30T22:54:48.210Z,41.60
2019-04-30T22:57:14.190Z,41.60
2019-04-30T22:59:49.735Z,41.50
2019-04-30T23:02:18.665Z,41.50
2019-04-30T23:04:48.967Z,41.60
2019-04-30T23:07:14.998Z,41.60
2019-04-30T23:09:40.993Z,41.60
2019-04-30T23:12:07.048Z,41.50
2019-04-30T23:14:33.003Z,41.60
2019-04-30T23:16:59.027Z,41.60
2019-04-30T23:19:25.078Z,41.50
2019-04-30T23:21:51.021Z,41.50
2019-04-30T23:24:16.984Z,41.50
2019-04-30T23:26:42.963Z,41.50
2019-04-30T23:29:08.939Z,41.70
2019-04-30T23:31:34.909Z,41.70
2019-04-30T23:34:00.859Z,41.50
2019-04-30T23:36:26.807Z,41.50
2019-04-30T23:38:52.777Z,41.50
2019-04-30T23:41:18.759Z,41.50
2019-04-30T23:43:44.811Z,41.60
2019-04-30T23:46:10.740Z,41.50
2019-04-30T23:48:36.697Z,41.50
2019-04-30T23:51:02.689Z,41.40
2019-04-30T23:53:28.744Z,41.40
2019-04-30T23:55:54.724Z,41.40
2019-04-30T23:58:20.753Z,41.40
